Time;durP1;ratioP1;P1;durP2;ratioP2;P2;SDS_P1;SDS_P2;PMS_P1;PMS_P2;Temp;Humidity;BMP_temperature;BMP_pressure;BME280_temperature;BME280_humidity;BME280_pressure;Samples;Min_cycle;Max_cycle;Signal;HPM_P1;HPM_P2
2023/09/20 00:02:02;;;;;;;27.88;17.65;;;22.20;99.90;;;;;;4976333;28;20125;-81
2023/09/20 00:04:29;;;;;;;22.35;17.00;;;22.10;99.90;;;;;;4993994;28;20081;-82
2023/09/20 00:06:56;;;;;;;27.77;17.80;;;22.00;99.90;;;;;;4993882;28;20022;-81
2023/09/20 00:09:23;;;;;;;27.05;17.88;;;22.00;99.90;;;;;;4996000;28;20026;-81
2023/09/20 00:11:50;;;;;;;23.40;18.25;;;21.90;99.90;;;;;;4996094;28;20030;-81
2023/09/20 00:14:16;;;;;;;22.10;18.50;;;22.00;99.90;;;;;;4980161;28;20479;-82
2023/09/20 00:16:43;;;;;;;23.45;16.50;;;22.00;99.90;;;;;;4995798;28;20046;-81
2023/09/20 00:19:09;;;;;;;31.45;17.15;;;22.00;99.90;;;;;;4996401;28;20391;-81
2023/09/20 00:21:35;;;;;;;24.83;17.73;;;22.00;99.90;;;;;;4995856;28;20026;-81
2023/09/20 00:24:04;;;;;;;21.30;16.80;;;22.10;99.90;;;;;;4997463;28;20057;-81
2023/09/20 00:26:34;;;;;;;26.75;18.20;;;22.10;99.90;;;;;;4995771;28;20030;-81
2023/09/20 00:29:08;;;;;;;25.48;17.77;;;22.10;99.90;;;;;;4979597;28;20031;-81
2023/09/20 00:31:35;;;;;;;25.33;16.30;;;22.10;99.90;;;;;;4979464;28;20117;-81
2023/09/20 00:34:03;;;;;;;25.70;18.10;;;22.00;99.90;;;;;;4979512;28;20036;-81
2023/09/20 00:36:30;;;;;;;24.80;17.50;;;22.00;99.90;;;;;;4997201;28;20391;-81
2023/09/20 00:39:00;;;;;;;20.23;16.48;;;22.00;99.90;;;;;;4976170;28;20400;-81
2023/09/20 00:41:31;;;;;;;25.92;17.50;;;21.90;99.90;;;;;;4978007;28;20027;-81
2023/09/20 00:43:58;;;;;;;21.45;17.05;;;21.90;99.90;;;;;;4992240;28;20027;-81
2023/09/20 00:46:25;;;;;;;23.55;17.05;;;21.90;99.90;;;;;;4959937;28;20086;-82
2023/09/20 00:48:54;;;;;;;26.17;17.05;;;21.90;99.90;;;;;;4995787;28;20415;-81
2023/09/20 00:51:25;;;;;;;26.33;17.13;;;21.90;99.90;;;;;;4996206;28;20041;-81
2023/09/20 00:53:57;;;;;;;21.83;16.80;;;21.80;99.90;;;;;;4995063;28;20058;-81
2023/09/20 00:56:24;;;;;;;25.35;16.55;;;21.90;99.90;;;;;;4995240;28;20026;-81
2023/09/20 00:58:53;;;;;;;27.48;17.38;;;21.90;99.90;;;;;;4991018;28;20027;-81
2023/09/20 01:01:20;;;;;;;26.50;16.83;;;21.90;99.90;;;;;;4991889;28;20492;-81
2023/09/20 01:03:51;;;;;;;23.65;17.85;;;21.80;99.90;;;;;;4975756;28;20019;-81
2023/09/20 01:06:19;;;;;;;25.13;18.08;;;21.70;99.90;;;;;;4976890;28;20031;-81
2023/09/20 01:08:46;;;;;;;25.88;18.38;;;21.70;99.90;;;;;;4994719;28;20105;-81
2023/09/20 01:11:14;;;;;;;30.90;17.58;;;21.70;99.90;;;;;;4996422;28;20035;-81
2023/09/20 01:13:43;;;;;;;25.83;18.02;;;21.60;99.90;;;;;;4996193;28;20430;-81
2023/09/20 01:16:09;;;;;;;25.30;17.30;;;21.70;99.90;;;;;;4978772;28;20034;-82
2023/09/20 01:18:36;;;;;;;21.98;17.23;;;21.70;99.90;;;;;;4995960;28;20046;-81
2023/09/20 01:21:05;;;;;;;26.17;18.00;;;21.70;99.90;;;;;;4994709;28;20109;-81
2023/09/20 01:23:34;;;;;;;25.65;16.52;;;21.70;99.90;;;;;;4978537;28;20031;-82
2023/09/20 01:26:03;;;;;;;22.95;16.23;;;21.70;99.90;;;;;;4994819;28;20034;-82
2023/09/20 01:28:30;;;;;;;27.35;16.80;;;21.80;99.90;;;;;;4995824;28;20058;-81
2023/09/20 01:30:58;;;;;;;22.52;17.15;;;21.80;99.90;;;;;;4995961;28;20105;-81
2023/09/20 01:33:25;;;;;;;23.63;17.27;;;21.80;99.90;;;;;;4995786;28;20042;-82
2023/09/20 01:35:54;;;;;;;24.90;16.58;;;21.80;99.90;;;;;;4995763;28;20026;-81
2023/09/20 01:38:20;;;;;;;25.98;17.50;;;21.80;99.90;;;;;;4975068;28;20034;-82
2023/09/20 01:40:47;;;;;;;29.27;17.05;;;21.80;99.90;;;;;;4975044;28;20030;-82
2023/09/20 01:43:14;;;;;;;22.60;17.10;;;21.70;99.90;;;;;;4991066;28;20038;-80
2023/09/20 01:45:43;;;;;;;25.73;17.02;;;21.70;99.90;;;;;;4976478;28;20031;-81
2023/09/20 01:48:24;;;;;;;28.48;17.23;;;21.70;99.90;;;;;;4988288;28;20493;-81
2023/09/20 01:50:51;;;;;;;24.50;16.83;;;21.70;99.90;;;;;;4994270;28;20085;-81
2023/09/20 01:53:18;;;;;;;25.45;17.75;;;21.70;99.90;;;;;;4995370;28;20031;-81
2023/09/20 01:55:45;;;;;;;27.15;16.83;;;21.70;99.90;;;;;;4994136;28;20034;-81
2023/09/20 01:58:15;;;;;;;26.55;18.02;;;21.60;99.90;;;;;;4994156;28;20036;-81
2023/09/20 02:00:42;;;;;;;27.77;16.92;;;21.60;99.90;;;;;;4994048;28;20490;-81
2023/09/20 02:03:16;;;;;;;31.85;18.95;;;21.60;99.90;;;;;;4994006;28;20026;-81
2023/09/20 02:05:47;;;;;;;22.17;16.60;;;21.70;99.90;;;;;;4994731;28;20027;-81
2023/09/20 02:08:15;;;;;;;26.05;16.83;;;21.70;99.90;;;;;;4994020;28;20029;-81
2023/09/20 02:10:42;;;;;;;25.08;17.20;;;21.70;99.90;;;;;;4995223;28;20026;-81
2023/09/20 02:13:08;;;;;;;22.35;16.42;;;21.70;99.90;;;;;;4993825;28;20050;-81
2023/09/20 02:15:36;;;;;;;24.42;17.08;;;21.70;99.90;;;;;;4993770;28;20383;-81
2023/09/20 02:18:05;;;;;;;22.40;16.45;;;21.70;99.90;;;;;;4974199;28;20106;-81
2023/09/20 02:20:36;;;;;;;26.60;17.30;;;21.70;99.90;;;;;;4975634;28;20041;-82
2023/09/20 02:23:12;;;;;;;29.90;17.65;;;21.60;99.90;;;;;;4975552;28;20042;-81
2023/09/20 02:25:40;;;;;;;22.80;17.98;;;21.60;99.90;;;;;;4990459;28;20033;-81
2023/09/20 02:28:07;;;;;;;26.65;17.25;;;21.60;99.90;;;;;;4993776;28;20379;-81
2023/09/20 02:30:38;;;;;;;25.85;17.17;;;21.50;99.90;;;;;;4993478;28;20434;-81
2023/09/20 02:33:08;;;;;;;24.15;17.48;;;21.50;99.90;;;;;;4977193;28;20034;-81
2023/09/20 02:35:38;;;;;;;23.02;18.33;;;21.50;99.90;;;;;;4977468;28;20050;-82
2023/09/20 02:38:05;;;;;;;27.10;18.40;;;21.40;99.90;;;;;;4974022;28;20129;-81
2023/09/20 02:40:35;;;;;;;22.92;20.05;;;21.40;99.90;;;;;;4973998;28;20022;-82
2023/09/20 02:43:08;;;;;;;31.48;20.25;;;21.30;99.90;;;;;;4957863;28;20027;-81
2023/09/20 02:45:39;;;;;;;30.07;20.10;;;21.30;99.90;;;;;;4974006;28;20438;-81
2023/09/20 02:48:07;;;;;;;30.80;21.15;;;21.30;99.90;;;;;;4984358;28;20029;-80
2023/09/20 02:50:34;;;;;;;31.23;21.10;;;21.30;99.90;;;;;;4977153;28;20113;-81
2023/09/20 02:53:00;;;;;;;30.65;21.23;;;21.30;99.90;;;;;;4992849;28;20095;-81
2023/09/20 02:55:27;;;;;;;25.80;20.27;;;21.30;99.90;;;;;;4993183;28;20383;-81
2023/09/20 02:57:54;;;;;;;28.73;22.23;;;21.20;99.90;;;;;;4992822;28;20030;-81
2023/09/20 03:00:27;;;;;;;35.38;20.75;;;21.20;99.90;;;;;;4993058;28;20491;-81
2023/09/20 03:02:57;;;;;;;27.33;21.15;;;21.20;99.90;;;;;;4993385;28;20034;-81
2023/09/20 03:05:29;;;;;;;27.45;20.75;;;21.20;99.90;;;;;;4992993;28;20030;-81
2023/09/20 03:07:56;;;;;;;28.98;19.58;;;21.20;99.90;;;;;;4992862;28;20035;-81
2023/09/20 03:10:23;;;;;;;33.40;20.15;;;21.20;99.90;;;;;;4993168;28;20033;-81
2023/09/20 03:12:55;;;;;;;28.55;20.23;;;21.10;99.90;;;;;;4992984;28;20112;-81
2023/09/20 03:15:23;;;;;;;26.13;19.88;;;21.10;99.90;;;;;;4992837;28;20030;-81
2023/09/20 03:17:54;;;;;;;24.95;19.50;;;21.00;99.90;;;;;;4992687;28;20145;-81
2023/09/20 03:20:25;;;;;;;35.63;20.50;;;21.00;99.90;;;;;;4976872;28;20027;-81
2023/09/20 03:22:59;;;;;;;31.50;21.33;;;21.00;99.90;;;;;;4977219;28;20061;-80
2023/09/20 03:25:36;;;;;;;28.75;19.65;;;20.90;99.90;;;;;;4992903;28;20032;-80
2023/09/20 03:28:08;;;;;;;23.58;19.10;;;20.90;99.90;;;;;;4992755;28;20498;-81
2023/09/20 03:30:38;;;;;;;32.65;19.92;;;20.90;99.90;;;;;;4992742;28;20038;-81
2023/09/20 03:33:07;;;;;;;27.02;19.30;;;20.90;99.90;;;;;;4992644;28;20042;-81
2023/09/20 03:35:34;;;;;;;29.88;19.90;;;20.90;99.90;;;;;;4994007;28;20026;-81
2023/09/20 03:38:03;;;;;;;30.15;20.35;;;20.90;99.90;;;;;;4993858;28;20399;-81
2023/09/20 03:40:30;;;;;;;34.53;19.08;;;21.00;99.90;;;;;;4992804;28;20069;-82
2023/09/20 03:43:03;;;;;;;23.48;18.83;;;21.10;99.90;;;;;;4993157;28;20395;-81
2023/09/20 03:45:30;;;;;;;25.13;18.52;;;21.10;99.90;;;;;;4996461;28;20125;-81
2023/09/20 03:47:57;;;;;;;25.25;19.65;;;21.10;99.90;;;;;;4980643;28;20050;-82
2023/09/20 03:50:24;;;;;;;25.30;17.90;;;21.00;99.90;;;;;;4996521;28;20041;-80
2023/09/20 03:52:52;;;;;;;24.70;18.58;;;21.00;99.90;;;;;;4997853;28;20038;-84
2023/09/20 03:55:19;;;;;;;26.85;18.42;;;21.00;99.90;;;;;;4996754;28;20602;-84
2023/09/20 03:57:48;;;;;;;23.27;18.30;;;21.00;99.90;;;;;;4976940;28;20029;-84
2023/09/20 04:00:27;;;;;;;26.52;17.90;;;21.00;99.90;;;;;;4993243;28;20026;-84
2023/09/20 04:02:54;;;;;;;27.35;18.40;;;20.90;99.90;;;;;;4993272;28;20114;-84
2023/09/20 04:05:20;;;;;;;27.80;19.10;;;20.90;99.90;;;;;;4978424;28;20050;-87
2023/09/20 04:07:48;;;;;;;27.15;18.77;;;20.90;99.90;;;;;;4996516;28;20022;-85
2023/09/20 04:10:17;;;;;;;29.05;18.20;;;20.90;99.90;;;;;;4996448;28;20033;-85
2023/09/20 04:12:46;;;;;;;25.42;18.70;;;20.90;99.90;;;;;;4996247;28;20588;-85
2023/09/20 04:15:13;;;;;;;29.70;18.48;;;20.80;99.90;;;;;;4980406;28;20033;-84
2023/09/20 04:17:39;;;;;;;24.27;17.83;;;20.70;99.90;;;;;;4980870;28;20149;-85
2023/09/20 04:20:11;;;;;;;28.60;18.73;;;20.70;99.90;;;;;;4980239;28;20084;-85
2023/09/20 04:22:40;;;;;;;27.17;19.52;;;20.60;99.90;;;;;;4997080;28;20030;-85
2023/09/20 04:25:10;;;;;;;31.70;18.70;;;20.50;99.90;;;;;;4996720;28;20522;-84
2023/09/20 04:27:38;;;;;;;25.20;18.63;;;20.50;99.90;;;;;;4977718;28;20034;-85
2023/09/20 04:30:09;;;;;;;27.48;19.05;;;20.50;99.90;;;;;;4976677;28;20057;-85
2023/09/20 04:32:38;;;;;;;26.25;18.92;;;20.50;99.90;;;;;;4993421;28;20035;-85
2023/09/20 04:35:11;;;;;;;27.58;19.42;;;20.40;99.90;;;;;;4992641;28;20034;-84
2023/09/20 04:37:38;;;;;;;25.42;18.15;;;20.40;99.90;;;;;;4980595;28;20030;-85
2023/09/20 04:40:08;;;;;;;25.25;17.65;;;20.40;99.90;;;;;;4996090;28;20022;-85
2023/09/20 04:42:38;;;;;;;24.13;19.10;;;20.50;99.90;;;;;;4996754;28;20452;-85
2023/09/20 04:45:14;;;;;;;30.92;18.27;;;20.60;99.90;;;;;;4995975;28;20027;-84
2023/09/20 04:47:42;;;;;;;31.85;19.15;;;20.70;99.90;;;;;;4977003;28;20030;-85
2023/09/20 04:50:09;;;;;;;35.85;19.67;;;20.80;99.90;;;;;;4991795;28;20014;-84
2023/09/20 04:52:36;;;;;;;30.27;18.67;;;20.80;99.90;;;;;;4996150;28;20042;-85
2023/09/20 04:55:03;;;;;;;29.83;19.75;;;20.90;99.90;;;;;;4979481;28;20383;-85
2023/09/20 04:57:29;;;;;;;28.92;18.75;;;21.00;99.90;;;;;;4996562;28;20030;-83
2023/09/20 04:59:56;;;;;;;24.73;18.60;;;21.00;99.90;;;;;;4996337;28;20383;-85
2023/09/20 05:02:22;;;;;;;29.73;19.23;;;21.10;99.90;;;;;;4942884;28;20046;-90
2023/09/20 05:04:50;;;;;;;25.70;19.40;;;21.00;99.90;;;;;;4921046;28;20019;-89
2023/09/20 05:07:18;;;;;;;26.45;19.27;;;21.10;99.90;;;;;;4996054;28;20404;-90
2023/09/20 05:09:49;;;;;;;24.83;18.75;;;21.20;99.90;;;;;;4979998;28;20018;-90
2023/09/20 05:12:16;;;;;;;29.55;19.33;;;21.30;99.90;;;;;;4995758;28;20035;-83
2023/09/20 05:14:42;;;;;;;29.40;20.20;;;21.40;99.90;;;;;;4975868;28;20034;-85
2023/09/20 05:17:09;;;;;;;27.30;19.35;;;21.50;99.90;;;;;;4960020;28;20046;-87
2023/09/20 05:19:37;;;;;;;33.25;21.33;;;21.70;99.90;;;;;;4985468;28;20037;-90
2023/09/20 05:22:05;;;;;;;36.55;25.00;;;21.90;99.90;;;;;;4981475;28;20042;-92
2023/09/20 05:24:33;;;;;;;45.47;28.75;;;22.20;99.90;;;;;;4996335;28;20113;-92
2023/09/20 05:27:03;;;;;;;34.50;24.05;;;22.50;99.90;;;;;;4996734;28;20460;-90
2023/09/20 05:29:29;;;;;;;27.63;19.90;;;22.80;99.90;;;;;;4996186;28;20026;-83
2023/09/20 07:44:30;;;;;;;33.78;30.55;;;30.90;99.90;;;;;;5301909;23;20512;-87
2023/09/20 07:47:00;;;;;;;34.72;31.25;;;30.90;99.90;;;;;;4939026;29;20543;-87
2023/09/20 07:49:27;;;;;;;33.85;30.92;;;31.00;99.90;;;;;;4922697;29;20054;-87
2023/09/20 07:51:54;;;;;;;34.17;30.77;;;31.20;99.90;;;;;;4938449;29;20032;-87
2023/09/20 07:54:21;;;;;;;33.17;29.95;;;31.50;99.90;;;;;;4922412;29;20392;-87
2023/09/20 08:12:25;;;;;;;34.35;31.15;;;32.20;99.90;;;;;;5127661;27;20345;-90
2023/09/20 08:14:51;;;;;;;34.83;30.92;;;31.80;99.90;;;;;;5094049;28;20024;-90
2023/09/20 08:20:07;;;;;;;34.45;31.17;;;31.50;99.90;;;;;;5084091;28;20029;-88
2023/09/20 09:01:23;;;;;;;31.77;29.15;;;31.90;99.90;;;;;;5077751;28;20107;-89
2023/09/20 09:03:50;;;;;;;31.90;29.00;;;31.70;99.90;;;;;;5063619;28;20028;-89
2023/09/20 09:06:17;;;;;;;31.95;28.70;;;32.10;99.90;;;;;;5079720;28;20058;-89
2023/09/20 09:08:44;;;;;;;31.63;28.77;;;32.00;99.90;;;;;;5082795;28;20078;-89
2023/09/20 09:11:11;;;;;;;31.30;28.58;;;31.80;99.90;;;;;;5105635;28;20044;-89
2023/09/20 09:13:37;;;;;;;33.95;30.42;;;31.90;99.90;;;;;;5097542;28;20028;-89
2023/09/20 09:16:07;;;;;;;33.38;29.77;;;32.10;99.90;;;;;;5096147;28;20472;-90
2023/09/20 09:18:33;;;;;;;32.70;29.27;;;32.30;99.90;;;;;;5089742;28;20020;-89
2023/09/20 09:21:01;;;;;;;33.05;30.05;;;32.60;99.90;;;;;;5089574;28;20064;-90
2023/09/20 09:23:33;;;;;;;36.17;30.00;;;32.20;99.90;;;;;;5077552;28;20508;-89
2023/09/20 09:26:00;;;;;;;31.10;28.70;;;31.80;99.90;;;;;;5075848;28;20493;-90
2023/09/20 09:28:26;;;;;;;32.35;28.95;;;31.80;99.90;;;;;;5059137;28;20025;-90
2023/09/20 09:30:55;;;;;;;31.83;28.42;;;31.50;99.90;;;;;;5075839;28;20105;-90
2023/09/20 09:33:23;;;;;;;32.08;29.17;;;31.60;99.90;;;;;;5075785;28;20021;-90
2023/09/20 09:35:49;;;;;;;32.97;29.67;;;31.50;99.90;;;;;;5075756;28;20121;-90
2023/09/20 09:38:23;;;;;;;33.63;29.42;;;31.70;99.90;;;;;;5075684;28;20037;-89
2023/09/20 09:40:53;;;;;;;;;;;31.70;99.90;;;;;;5076131;28;20032;-90
2023/09/20 09:43:20;;;;;;;33.50;30.25;;;31.50;99.90;;;;;;5058888;28;19909;-90
2023/09/20 09:45:50;;;;;;;35.00;31.25;;;31.70;99.90;;;;;;5075486;28;20115;-90
2023/09/20 09:48:17;;;;;;;33.00;28.85;;;31.50;99.90;;;;;;5075466;28;20077;-90
2023/09/20 09:50:48;;;;;;;37.75;30.10;;;31.90;99.90;;;;;;5075530;28;20028;-83
2023/09/20 09:53:20;;;;;;;34.17;30.55;;;32.30;99.90;;;;;;5074955;28;20024;-83
2023/09/20 12:01:33;;;;;;;34.15;29.90;;;33.10;99.90;;;;;;5500356;23;20057;-84
2023/09/20 12:04:00;;;;;;;31.33;28.40;;;32.90;99.90;;;;;;4862913;29;20040;-85
2023/09/20 12:06:26;;;;;;;32.35;29.13;;;32.70;99.90;;;;;;4877775;29;20047;-80
2023/09/20 12:08:53;;;;;;;33.35;29.92;;;32.60;99.90;;;;;;4862082;29;20079;-81
2023/09/20 12:11:20;;;;;;;32.40;29.05;;;32.50;99.90;;;;;;4878991;29;20117;-80
2023/09/20 12:13:47;;;;;;;32.08;28.95;;;32.40;99.90;;;;;;4879360;29;20077;-79
2023/09/20 12:16:14;;;;;;;34.65;28.20;;;32.60;99.90;;;;;;4878283;29;20057;-79
2023/09/20 12:18:58;;;;;;;30.25;27.42;;;32.30;99.90;;;;;;4879529;29;20028;-80
2023/09/20 12:21:29;;;;;;;30.98;27.58;;;32.40;99.90;;;;;;4878349;29;20100;-80
2023/09/20 12:24:02;;;;;;;30.85;27.65;;;32.00;99.90;;;;;;4879220;29;20057;-83
2023/09/20 12:26:31;;;;;;;29.02;26.33;;;31.60;99.90;;;;;;4878345;29;20033;-82
2023/09/20 12:28:57;;;;;;;29.48;26.70;;;31.90;99.90;;;;;;4879769;29;20037;-87
2023/09/20 12:31:29;;;;;;;33.08;27.40;;;31.90;99.90;;;;;;4862913;29;20067;-84
2023/09/20 12:34:01;;;;;;;31.17;27.85;;;32.00;99.90;;;;;;4875273;29;20506;-81
2023/09/20 12:36:30;;;;;;;30.15;27.02;;;31.90;99.90;;;;;;4875007;29;20042;-85
2023/09/20 12:39:01;;;;;;;32.47;27.08;;;31.60;99.90;;;;;;4874890;29;20053;-83
2023/09/20 12:41:30;;;;;;;31.35;28.10;;;31.40;99.90;;;;;;4877823;29;20035;-83
2023/09/20 12:43:56;;;;;;;29.60;26.85;;;31.30;99.90;;;;;;4862585;29;20025;-79
2023/09/20 12:46:26;;;;;;;34.25;27.77;;;31.50;99.90;;;;;;4878186;29;20084;-78
2023/09/20 12:48:57;;;;;;;31.13;26.75;;;31.60;99.90;;;;;;4879273;29;20028;-78
2023/09/20 12:51:30;;;;;;;30.27;27.65;;;31.60;99.90;;;;;;4878972;29;20089;-82
2023/09/20 12:53:59;;;;;;;30.63;27.85;;;31.40;99.90;;;;;;4878599;29;20029;-88
2023/09/20 12:56:27;;;;;;;31.88;26.58;;;31.10;99.90;;;;;;4862731;29;20061;-84
2023/09/20 12:58:57;;;;;;;30.83;27.83;;;31.30;99.90;;;;;;4882732;29;20033;-86
2023/09/20 13:01:31;;;;;;;30.13;27.10;;;31.40;99.90;;;;;;4897824;29;20052;-84
2023/09/20 13:03:58;;;;;;;31.30;28.17;;;31.00;99.90;;;;;;4920205;29;20114;-86
2023/09/20 13:06:26;;;;;;;31.65;28.33;;;30.60;99.90;;;;;;4903594;29;20036;-88
2023/09/20 13:08:53;;;;;;;31.73;28.42;;;30.50;99.90;;;;;;4903444;29;20434;-84
2023/09/20 13:11:23;;;;;;;30.55;27.83;;;30.50;99.90;;;;;;4903697;29;20083;-86
2023/09/20 13:13:51;;;;;;;31.10;28.63;;;30.50;99.90;;;;;;4903292;29;20402;-83
2023/09/20 13:16:22;;;;;;;31.65;28.42;;;30.20;99.90;;;;;;4903083;29;20024;-85
2023/09/20 13:18:50;;;;;;;36.63;27.80;;;30.40;99.90;;;;;;4903377;29;20029;-86
2023/09/20 13:21:16;;;;;;;30.52;26.98;;;30.70;99.90;;;;;;4903294;29;20115;-85
2023/09/20 13:23:43;;;;;;;31.80;28.77;;;30.70;99.90;;;;;;4902973;29;20155;-83
2023/09/20 13:26:09;;;;;;;30.77;27.88;;;30.90;99.90;;;;;;4903097;29;20441;-83
2023/09/20 13:28:41;;;;;;;30.65;27.73;;;30.90;99.90;;;;;;4918753;29;20064;-84
2023/09/20 13:31:15;;;;;;;31.57;28.13;;;30.70;99.90;;;;;;4902568;29;20446;-82
2023/09/20 13:33:43;;;;;;;30.85;27.75;;;30.50;99.90;;;;;;4918707;29;20788;-85
2023/09/20 13:36:11;;;;;;;29.80;26.98;;;30.50;99.90;;;;;;4904140;29;20159;-83
2023/09/20 13:38:40;;;;;;;31.95;28.38;;;30.50;99.90;;;;;;4918964;29;20032;-84
2023/09/20 13:41:06;;;;;;;31.17;28.13;;;30.50;99.90;;;;;;4902774;29;20397;-84
2023/09/20 13:43:33;;;;;;;31.23;28.23;;;30.50;99.90;;;;;;4902970;29;20031;-84
2023/09/20 13:46:00;;;;;;;30.40;27.50;;;30.60;99.90;;;;;;4919628;29;20032;-83
2023/09/20 13:48:27;;;;;;;30.08;26.95;;;30.70;99.90;;;;;;4919739;29;20025;-85
2023/09/20 13:50:54;;;;;;;31.15;28.42;;;30.70;99.90;;;;;;4902476;29;20036;-85
2023/09/20 13:53:20;;;;;;;32.22;28.90;;;30.60;99.90;;;;;;4902242;29;20544;-85
2023/09/20 13:55:47;;;;;;;31.42;28.30;;;30.60;99.90;;;;;;4902571;29;20039;-84
2023/09/20 13:58:15;;;;;;;36.28;29.15;;;30.40;99.90;;;;;;4886713;29;20040;-84
2023/09/20 14:00:42;;;;;;;31.65;28.85;;;30.30;99.90;;;;;;4902021;29;20569;-85
2023/09/20 14:03:09;;;;;;;32.45;29.30;;;30.20;99.90;;;;;;4902618;29;20122;-84
2023/09/20 14:05:36;;;;;;;32.25;29.33;;;30.10;99.90;;;;;;4902634;29;20024;-87
2023/09/20 14:08:03;;;;;;;32.55;29.23;;;30.20;99.90;;;;;;4902731;29;20079;-84
2023/09/20 14:10:31;;;;;;;30.50;27.85;;;30.00;99.90;;;;;;4895926;29;20033;-83
2023/09/20 14:12:58;;;;;;;32.22;28.90;;;29.80;99.90;;;;;;4917545;29;20426;-84
2023/09/20 14:15:25;;;;;;;34.53;29.08;;;29.60;99.90;;;;;;4901611;29;20477;-82
2023/09/20 14:17:57;;;;;;;32.15;29.15;;;29.50;99.90;;;;;;4901998;29;20111;-84
2023/09/20 14:20:26;;;;;;;33.85;29.00;;;29.40;99.90;;;;;;4901771;29;20113;-83
2023/09/20 14:22:54;;;;;;;32.92;29.48;;;29.20;99.90;;;;;;4893594;29;20069;-83
2023/09/20 14:25:26;;;;;;;32.13;28.77;;;29.10;99.90;;;;;;4882881;29;20033;-84
2023/09/20 14:27:55;;;;;;;34.83;29.38;;;29.30;99.90;;;;;;4900117;29;20047;-83
2023/09/20 14:30:24;;;;;;;41.40;29.20;;;29.20;99.90;;;;;;4883130;29;20427;-83
2023/09/20 14:32:56;;;;;;;31.95;28.90;;;29.10;99.90;;;;;;4909437;29;20032;-83
2023/09/20 14:35:23;;;;;;;32.75;29.35;;;29.30;99.90;;;;;;4883208;29;20025;-83
2023/09/20 14:37:51;;;;;;;32.75;29.55;;;29.20;99.90;;;;;;4867597;29;20036;-85
2023/09/20 14:40:21;;;;;;;31.90;28.98;;;29.30;99.90;;;;;;4882601;29;20028;-85
2023/09/20 14:49:24;;;;;;;32.92;29.75;;;29.00;99.90;;;;;;5167486;27;20345;-84
2023/09/20 14:51:53;;;;;;;35.45;29.98;;;28.90;99.90;;;;;;5134004;27;20050;-86
2023/09/20 14:54:22;;;;;;;33.53;29.95;;;28.90;99.90;;;;;;5111952;27;20024;-88
2023/09/20 14:56:49;;;;;;;33.75;30.42;;;28.90;99.90;;;;;;5118860;27;20061;-91
2023/09/20 14:59:17;;;;;;;33.40;29.98;;;28.70;99.90;;;;;;5118253;27;20030;-91
2023/09/20 15:01:44;;;;;;;32.67;29.70;;;28.70;99.90;;;;;;5118218;27;20023;-91
2023/09/20 15:04:11;;;;;;;36.85;29.80;;;28.60;99.90;;;;;;5112665;27;20019;-91
2023/09/20 15:06:37;;;;;;;32.97;29.55;;;28.50;99.90;;;;;;5135698;27;20077;-87
2023/09/20 15:09:07;;;;;;;32.13;29.20;;;28.20;99.90;;;;;;5117561;27;20027;-91
2023/09/20 15:11:34;;;;;;;32.97;29.63;;;28.20;99.90;;;;;;5134566;27;20023;-91
2023/09/20 15:14:01;;;;;;;32.15;29.20;;;28.30;99.90;;;;;;5117865;27;20406;-91
2023/09/20 15:16:30;;;;;;;33.42;30.00;;;28.20;99.90;;;;;;5118520;27;20026;-91
2023/09/20 15:18:58;;;;;;;34.22;30.17;;;28.30;99.90;;;;;;5118133;27;20034;-92
2023/09/20 15:21:25;;;;;;;33.20;29.70;;;28.20;99.90;;;;;;5118152;27;20060;-91
2023/09/20 15:23:51;;;;;;;33.13;29.67;;;28.30;99.90;;;;;;5106764;28;20015;-92
2023/09/20 15:26:18;;;;;;;33.45;30.10;;;28.30;99.90;;;;;;5098749;28;20038;-91
2023/09/20 15:28:45;;;;;;;33.22;30.00;;;28.30;99.90;;;;;;5099115;28;20069;-91
2023/09/20 15:31:20;;;;;;;32.75;29.67;;;28.20;99.90;;;;;;5098790;28;20136;-92
2023/09/20 15:33:48;;;;;;;39.40;29.75;;;28.20;99.90;;;;;;5099384;28;20057;-91
2023/09/20 15:36:15;;;;;;;32.85;29.48;;;28.00;99.90;;;;;;5115512;27;20617;-91
2023/09/20 15:38:43;;;;;;;34.80;29.60;;;27.90;99.90;;;;;;5119147;27;20104;-92
2023/09/20 15:41:09;;;;;;;35.65;30.50;;;27.90;99.90;;;;;;5119451;27;20471;-91
2023/09/20 15:43:41;;;;;;;35.15;29.92;;;27.90;99.90;;;;;;5116288;28;20493;-91
2023/09/20 15:46:08;;;;;;;33.95;30.38;;;27.90;99.90;;;;;;5114971;27;20474;-92
2023/09/20 15:48:34;;;;;;;32.67;29.40;;;27.80;99.90;;;;;;5120879;28;20055;-91
2023/09/20 15:51:02;;;;;;;36.35;29.33;;;27.80;99.90;;;;;;5120321;28;20106;-91
2023/09/20 15:53:30;;;;;;;37.90;29.90;;;27.70;99.90;;;;;;5114786;28;20024;-91
2023/09/20 15:55:58;;;;;;;33.65;29.17;;;27.40;99.90;;;;;;5105931;28;20075;-91
2023/09/20 15:58:26;;;;;;;32.47;29.08;;;27.40;99.90;;;;;;5116107;28;20041;-91
2023/09/20 16:00:53;;;;;;;33.38;29.65;;;27.40;99.90;;;;;;5105264;28;20031;-91
2023/09/20 16:03:20;;;;;;;37.00;29.45;;;27.40;99.90;;;;;;5084925;28;20028;-92
2023/09/20 16:05:48;;;;;;;45.90;30.35;;;27.40;99.90;;;;;;5118937;28;20023;-91
2023/09/20 16:08:20;;;;;;;42.17;28.60;;;27.40;99.90;;;;;;5100155;28;20254;-91
2023/09/20 16:10:49;;;;;;;34.92;27.65;;;27.40;99.90;;;;;;5117325;28;20411;-91
2023/09/20 16:13:16;;;;;;;37.72;27.10;;;27.40;99.90;;;;;;5100916;28;20483;-91
2023/09/20 16:15:43;;;;;;;32.67;26.92;;;27.30;99.90;;;;;;5116697;28;20024;-91
2023/09/20 16:18:10;;;;;;;34.58;25.75;;;27.20;99.90;;;;;;5100644;28;20046;-91
2023/09/20 16:20:37;;;;;;;32.58;26.25;;;27.20;99.90;;;;;;5101357;28;20019;-91
2023/09/20 16:23:08;;;;;;;34.38;25.30;;;27.10;99.90;;;;;;5099763;28;20564;-91
2023/09/20 16:25:35;;;;;;;30.85;25.77;;;27.10;99.90;;;;;;5099150;28;20047;-91
2023/09/20 16:28:03;;;;;;;33.05;24.83;;;27.00;99.90;;;;;;5099369;28;20032;-92
2023/09/20 16:30:29;;;;;;;34.17;23.38;;;27.00;99.90;;;;;;5091417;28;20032;-92
2023/09/20 16:32:56;;;;;;;33.90;23.10;;;27.00;99.90;;;;;;5079482;28;20494;-92
2023/09/20 16:35:23;;;;;;;39.17;24.50;;;26.80;99.90;;;;;;5097052;28;20028;-91
2023/09/20 16:37:51;;;;;;;31.23;23.48;;;26.90;99.90;;;;;;5099917;28;20022;-91
2023/09/20 16:40:18;;;;;;;33.25;23.02;;;26.90;99.90;;;;;;5116612;28;20035;-91
2023/09/20 16:42:46;;;;;;;27.17;22.48;;;26.80;99.90;;;;;;5099333;28;20022;-91
2023/09/20 16:45:14;;;;;;;27.67;22.67;;;26.80;99.90;;;;;;5100099;28;20042;-91
2023/09/20 16:47:42;;;;;;;30.98;23.60;;;26.60;99.90;;;;;;5099193;28;20096;-90
2023/09/20 16:50:09;;;;;;;30.80;24.88;;;26.60;99.90;;;;;;5097893;28;20499;-87
2023/09/20 16:52:35;;;;;;;53.10;25.55;;;26.50;99.90;;;;;;5092806;28;20035;-90
2023/09/20 16:55:02;;;;;;;33.03;24.67;;;26.50;99.90;;;;;;5098727;28;20119;-89
2023/09/20 16:57:32;;;;;;;30.33;23.33;;;26.50;99.90;;;;;;5099155;28;20051;-89
2023/09/20 16:59:59;;;;;;;35.67;23.25;;;26.40;99.90;;;;;;5098724;28;20035;-91
2023/09/20 17:02:25;;;;;;;29.40;22.80;;;26.30;99.90;;;;;;5078717;28;20081;-92
2023/09/20 17:04:56;;;;;;;29.25;24.17;;;26.20;99.90;;;;;;5078666;28;20028;-91
2023/09/20 17:07:24;;;;;;;38.00;23.73;;;26.10;99.90;;;;;;5078996;28;20036;-92
2023/09/20 17:09:50;;;;;;;33.08;23.30;;;26.10;99.90;;;;;;5079420;28;20473;-91
2023/09/20 17:12:18;;;;;;;34.72;22.75;;;26.00;99.90;;;;;;5082061;28;20024;-90
2023/09/20 17:14:44;;;;;;;35.05;22.73;;;25.90;99.90;;;;;;5078725;28;20051;-91
2023/09/20 17:17:12;;;;;;;30.08;21.17;;;25.90;99.90;;;;;;5078371;28;20063;-90
2023/09/20 17:19:38;;;;;;;33.30;21.13;;;25.80;99.90;;;;;;5078148;28;20077;-90
2023/09/20 17:22:06;;;;;;;29.25;21.40;;;25.80;99.90;;;;;;5077416;28;20024;-90
2023/09/20 17:24:36;;;;;;;33.15;20.75;;;25.70;99.90;;;;;;5077978;28;20387;-91
2023/09/20 17:27:04;;;;;;;34.90;22.20;;;25.70;99.90;;;;;;5077627;28;20025;-91
2023/09/20 17:29:31;;;;;;;30.90;20.25;;;25.60;99.90;;;;;;5078738;28;20031;-90
2023/09/20 17:31:58;;;;;;;35.25;21.25;;;25.60;99.90;;;;;;5089506;28;20028;-90
2023/09/20 17:34:27;;;;;;;37.85;20.42;;;25.60;99.90;;;;;;5088636;28;20536;-89
2023/09/20 17:36:54;;;;;;;41.50;22.33;;;25.60;99.90;;;;;;5077539;28;20035;-92
2023/09/20 17:39:20;;;;;;;36.13;22.10;;;25.70;99.90;;;;;;5111250;28;20036;-91
2023/09/20 17:41:47;;;;;;;31.98;21.38;;;25.80;99.90;;;;;;5113774;28;20024;-90
2023/09/20 17:44:14;;;;;;;31.55;21.20;;;25.80;99.90;;;;;;5098072;28;20027;-89
2023/09/20 17:46:42;;;;;;;31.77;21.85;;;25.90;99.90;;;;;;5098115;28;20023;-90
2023/09/20 17:49:12;;;;;;;36.90;22.73;;;25.90;99.90;;;;;;5096972;28;20185;-91
2023/09/20 17:51:38;;;;;;;31.95;22.02;;;25.90;99.90;;;;;;5097569;28;20024;-90
2023/09/20 17:54:09;;;;;;;27.85;20.92;;;25.90;99.90;;;;;;5097374;28;20072;-90
2023/09/20 17:56:36;;;;;;;31.50;20.65;;;25.90;99.90;;;;;;5097477;28;20031;-90